Flight Track Log - Related Links

Times and Time Zones

All times are in EST time to prevent confusion due to time zone crossing. See the SWA3694 flight status page for this flight to view local times or setup timezone preferences in your user account.

Time Position Orientation Groundspeed Altitude Reporting Facility
EST Latitude Longitude Course Direction KTS MPH feet Rate Location/Type
Thu 03:47:12 PM 41.8167 -87.7667 75° East 167 192 2,200  Level Chicago TRACON
Thu 03:48:18 PM 41.8333 -87.6833 75° East 244 281 3,100 485 Climbing Chicago TRACON
Thu 03:49:28 PM 41.8094 -87.5967 110° East 239 275 3,300 1,318 Climbing Chicago Center
Thu 03:50:30 PM 41.7981 -87.4967 99° East 263 303 6,000 2,758 Climbing Chicago Center
Thu 03:51:32 PM 41.7897 -87.3844 96° East 290 334 9,000 2,710 Climbing Chicago Center
Thu 03:52:34 PM 41.7800 -87.2594 96° East 321 369 11,600 2,516 Climbing Chicago Center
Thu 03:53:36 PM 41.7678 -87.1214 97° East 357 411 14,200 2,256 Climbing Chicago Center
Thu 03:54:39 PM 41.7631 -86.9353 92° East 422 486 16,300 2,016 Climbing Chicago Center
Thu 03:55:41 PM 41.7661 -86.7689 89° East 444 511 18,400 2,032 Climbing Chicago Center
Thu 03:56:43 PM 41.7656 -86.5919 90° East 471 542 20,500 1,258 Climbing Chicago Center
Thu 03:57:45 PM 41.7678 -86.4133 89° East 479 551 21,000 387 Climbing Chicago Center
Thu 03:58:47 PM 41.7806 -86.2386 84° East 474 545 21,300 1,113 Climbing Chicago Center
Thu 03:59:49 PM 41.8233 -86.0647 72° East 491 565 23,300 1,935 Climbing Chicago Center
Thu 04:00:51 PM 41.9003 -85.8592 63° Northeast 513 590 25,300 1,645 Climbing Chicago Center
Thu 04:01:53 PM 41.9300 -85.6725 78° East 519 597 26,700 1,258 Climbing Chicago Center
Thu 04:02:55 PM 41.9314 -85.4744 89° East 523 602 27,900 1,200 Climbing Chicago Center
Thu 04:03:58 PM 41.9350 -85.2700 89° East 537 618 29,200 1,248 Climbing Chicago Center
Thu 04:05:00 PM 41.9392 -85.0633 88° East 550 633 30,500 1,258 Climbing Chicago Center
Thu 04:06:02 PM 41.9628 -84.8544 81° East 562 647 31,800 1,306 Climbing Chicago Center
Thu 04:07:04 PM 41.9906 -84.6239 81° East 567 652 33,200 1,306 Climbing Chicago Center
Thu 04:08:06 PM 42.0128 -84.4317 81° East 561 646 34,500 1,038 Climbing Chicago Center
Thu 04:08:48 PM 42.0300 -84.2747 82° East 559 643 35,000 288 Climbing Cleveland Center
Thu 04:09:50 PM 42.0531 -84.0839 81° East 559 643 35,000  Level Cleveland Center
Thu 04:10:52 PM 42.0797 -83.8403 82° East 555 639 35,000  Level Cleveland Center
Thu 04:11:54 PM 42.1025 -83.6361 81° East 556 640 35,000  Level Cleveland Center
Thu 04:12:56 PM 42.1239 -83.4308 82° East 561 646 35,000  Level Cleveland Center
Thu 04:13:58 PM 42.1500 -83.1908 82° East 561 646 35,000  Level Cleveland Center
Thu 04:15:00 PM 42.1719 -82.9853 82° East 561 646 35,000  Level Cleveland Center
Thu 04:16:02 PM 42.1925 -82.7786 82° East 561 646 35,000  Level Cleveland Center
Thu 04:17:05 PM 42.2136 -82.5722 82° East 559 643 35,000  Level Cleveland Center
Thu 04:18:07 PM 42.2333 -82.3664 83° East 556 640 35,000  Level Cleveland Center
Thu 04:19:09 PM 42.2556 -82.1375 82° East 556 640 35,000  Level Cleveland Center
Thu 04:20:11 PM 42.2744 -81.9281 83° East 556 640 35,000  Level Cleveland Center
Thu 04:21:13 PM 42.2947 -81.7183 82° East 555 639 35,000  Level Cleveland Center
Thu 04:22:15 PM 42.3139 -81.5100 83° East 554 638 35,000  Level Cleveland Center
Thu 04:23:17 PM 42.3350 -81.2672 83° East 553 636 35,000  Level Cleveland Center
Thu 04:24:19 PM 42.3533 -81.0592 83° East 552 635 35,000  Level Cleveland Center
Thu 04:25:21 PM 42.3711 -80.8506 83° East 552 635 35,000  Level Cleveland Center
Thu 04:26:23 PM 42.3889 -80.6436 83° East 549 632 35,000  Level Cleveland Center
Thu 04:27:26 PM 42.4064 -80.4347 83° East 553 636 35,000  Level Cleveland Center
Thu 04:28:28 PM 42.4231 -80.2250 84° East 555 639 35,000  Level Cleveland Center
Thu 04:29:30 PM 42.4394 -80.0169 84° East 552 635 35,000  Level Cleveland Center
Thu 04:30:32 PM 42.4567 -79.7925 84° East 556 640 35,000  Level Cleveland Center
Thu 04:31:34 PM 42.4706 -79.5900 85° East 549 632 35,000  Level Cleveland Center
Thu 04:32:36 PM 42.4856 -79.3836 84° East 552 635 35,000  Level Cleveland Center
Thu 04:33:38 PM 42.5025 -79.1361 85° East 552 635 35,000  Level Cleveland Center
Thu 04:34:40 PM 42.5164 -78.9308 85° East 550 633 35,000  Level Cleveland Center
Thu 04:35:42 PM 42.5294 -78.7256 85° East 548 631 35,000  Level Cleveland Center
Thu 04:36:44 PM 42.5428 -78.5222 85° East 545 627 35,000  Level Cleveland Center
Thu 04:37:47 PM 42.5569 -78.3219 84° East 537 618 35,000  Level Cleveland Center
Thu 04:38:49 PM 42.5692 -78.1211 85° East 538 619 35,000  Level Cleveland Center
Thu 04:39:51 PM 42.5828 -77.8822 85° East 534 615 35,000  Level Cleveland Center
Thu 04:40:53 PM 42.5919 -77.7039 86° East 532 612 35,000  Level Cleveland Center
Thu 04:41:55 PM 42.6067 -77.4656 85° East 531 611 35,000  Level Cleveland Center
Thu 04:42:57 PM 42.6175 -77.2603 86° East 531 611 35,000  Level Cleveland Center
Thu 04:43:49 PM 42.6258 -77.1017 86° East 533 613 35,000  Level Boston Center
Thu 04:44:49 PM 42.6361 -76.9019 86° East 532 612 35,000  Level Boston Center
Thu 04:45:53 PM 42.6458 -76.7042 86° East 529 609 35,000 -195 Level Boston Center
Thu 04:46:52 PM 42.6558 -76.5058 86° East 529 609 34,600 -634 Descending Boston Center
Thu 04:47:56 PM 42.6642 -76.3075 87° East 528 608 33,700 -1,016 Descending Boston Center
Thu 04:48:56 PM 42.6747 -76.0761 86° East 530 610 32,500 -1,091 Descending Boston Center
Thu 04:49:57 PM 42.6822 -75.8758 87° East 535 616 31,500 -992 Descending Boston Center
Thu 04:50:57 PM 42.6894 -75.6817 87° East 525 604 30,500 -968 Descending Boston Center
Thu 04:52:01 PM 42.6975 -75.4914 87° East 514 592 29,500 -726 Descending Boston Center
Thu 04:53:01 PM 42.7033 -75.3047 88° East 504 580 29,000 -246 Descending Boston Center
Thu 04:54:03 PM 42.7103 -75.1156 87° East 506 582 29,000  Level Boston Center
Thu 04:55:05 PM 42.7189 -74.8903 87° East 503 579 29,000  Level Boston Center
Thu 04:56:06 PM 42.7253 -74.7042 87° East 498 573 29,000  Level Boston Center
Thu 04:57:06 PM 42.7303 -74.5172 88° East 499 574 29,000 -195 Level Boston Center
Thu 04:58:09 PM 42.7353 -74.3297 88° East 501 577 28,600 -677 Descending Boston Center
Thu 04:59:10 PM 42.7400 -74.1408 88° East 502 578 27,600 -984 Descending Boston Center
Thu 05:00:11 PM 42.7444 -73.9517 88° East 507 583 26,600 -968 Descending Boston Center
Thu 05:01:14 PM 42.7483 -73.7639 88° East 501 577 25,600 -976 Descending Boston Center
Thu 05:02:14 PM 42.7561 -73.5786 87° East 494 568 24,600 -1,091 Descending Boston Center
Thu 05:03:15 PM 42.7644 -73.3614 87° East 481 554 23,400 -1,122 Descending Boston Center
Thu 05:04:17 PM 42.7706 -73.1872 87° East 463 533 22,300 -1,152 Descending Boston Center
Thu 05:05:20 PM 42.7756 -73.0169 88° East 447 514 21,000 -634 Descending Boston Center
Thu 05:06:20 PM 42.7803 -72.8647 88° East 446 513 21,000 -1,289 Level Boston Center
Thu 05:07:21 PM 42.7844 -72.6742 88° East 450 518 18,400 -2,459 Descending Boston Center
Thu 05:08:22 PM 42.7894 -72.5014 88° East 455 524 16,000 -2,274 Descending Boston Center
Thu 05:09:25 PM 42.7947 -72.3333 87° East 446 513 13,700 -2,323 Descending Boston Center
Thu 05:10:26 PM 42.8058 -72.1669 85° East 415 478 11,200 -1,820 Descending Boston Center
Thu 05:11:27 PM 42.8097 -72.0125 88° East 377 434 10,000 -1,190 Descending Boston Center
Thu 05:12:27 PM 42.8056 -71.8928 93° East 326 375 8,800 -1,403 Descending Boston Center
Thu 05:13:31 PM 42.7878 -71.7800 102° East 309 356 7,100 -1,645 Descending Boston Center
Thu 05:14:31 PM 42.7708 -71.6603 101° East 303 349 5,400 -1,636 Descending Boston Center
Thu 05:15:32 PM 42.7572 -71.5525 100° East 294 338 3,800 -1,355 Descending Boston Center
Thu 05:16:35 PM 42.7456 -71.4517 99° East 274 315 2,600 -871 Descending Boston Center
Thu 05:17:36 PM 42.7683 -71.3617 71° East 242 278 2,000 -298 Descending Boston Center
Thu 05:18:36 PM 42.8197 -71.3656 357° North 190 219 2,000 -198 Level Boston Center
Thu 05:19:37 PM 42.8622 -71.3917 336° Northwest 168 193 1,600 -581 Descending Boston Center
Thu 05:20:40 PM 42.9008 -71.4136 337° Northwest 151 174 800 -629 Descending Boston Center
Thu 05:21:41 PM 42.9372 -71.4350 337° Northwest 140 161 300 -492 Descending Boston Center
Thu 05:23:00 PM 42.9328 -71.4358 316° Northwest  Level Estimated

Login

Don't have an account? Register now (free) for customized features, flight alerts, and more!